createdAt,value
2023-03-24T00:01:36.163Z,57.36
2023-03-24T00:04:04.548Z,57.78
2023-03-24T00:06:34.700Z,57.30
2023-03-24T00:09:04.051Z,57.28
2023-03-24T00:11:34.978Z,57.09
2023-03-24T00:14:03.242Z,56.96
2023-03-24T00:16:34.694Z,57.07
2023-03-24T00:19:02.732Z,57.35
2023-03-24T00:21:32.540Z,57.57
2023-03-24T00:24:02.397Z,57.85
2023-03-24T00:26:30.498Z,57.86
2023-03-24T00:28:58.748Z,58.06
2023-03-24T00:31:28.923Z,58.11
2023-03-24T00:33:56.985Z,57.92
2023-03-24T00:36:29.271Z,57.49
2023-03-24T00:38:57.928Z,57.62
2023-03-24T00:41:28.896Z,57.47
2023-03-24T00:44:00.048Z,57.09
2023-03-24T00:46:28.953Z,57.35
2023-03-24T00:49:03.128Z,56.81
2023-03-24T00:51:35.313Z,56.88
2023-03-24T00:54:03.912Z,56.48
2023-03-24T00:56:37.781Z,56.53
2023-03-24T00:59:10.313Z,56.60
2023-03-24T01:01:41.281Z,56.22
2023-03-24T01:04:10.479Z,55.99
2023-03-24T01:06:39.904Z,56.14
2023-03-24T01:09:10.602Z,55.88
2023-03-24T01:11:42.146Z,55.72
2023-03-24T01:14:11.906Z,55.62
2023-03-24T01:16:41.052Z,55.65
2023-03-24T01:19:10.516Z,55.59
2023-03-24T01:21:40.108Z,55.61
2023-03-24T01:24:08.796Z,55.55
2023-03-24T01:26:37.089Z,55.59
2023-03-24T01:29:07.369Z,55.63
2023-03-24T01:31:36.493Z,55.72
2023-03-24T01:34:04.990Z,55.47
2023-03-24T01:36:33.236Z,55.84
2023-03-24T01:39:01.490Z,56.03
2023-03-24T01:41:35.818Z,56.28
2023-03-24T01:44:35.905Z,56.50
2023-03-24T01:47:08.572Z,57.14
2023-03-24T01:49:39.510Z,56.95
2023-03-24T01:52:14.640Z,56.95
2023-03-24T01:54:47.160Z,56.65
2023-03-24T01:57:21.441Z,56.84
2023-03-24T01:59:56.104Z,57.30
2023-03-24T02:02:49.611Z,57.84
2023-03-24T02:05:25.976Z,57.13
2023-03-24T02:08:02.876Z,57.12
2023-03-24T02:10:34.906Z,56.98
2023-03-24T02:13:04.527Z,56.98
2023-03-24T02:15:40.237Z,56.56
2023-03-24T02:18:19.010Z,56.70
2023-03-24T02:21:45.837Z,56.02
2023-03-24T02:25:00.819Z,56.05
2023-03-24T02:28:09.431Z,56.32
2023-03-24T02:31:10.090Z,56.29
2023-03-24T02:34:37.154Z,56.08
2023-03-24T02:37:56.127Z,56.01
2023-03-24T02:40:35.559Z,55.84
2023-03-24T02:43:20.651Z,55.76
2023-03-24T02:46:05.762Z,55.72
2023-03-24T02:48:38.364Z,55.72
2023-03-24T02:51:14.293Z,55.86
2023-03-24T02:53:56.320Z,55.62
2023-03-24T02:56:37.717Z,55.85
2023-03-24T02:59:24.491Z,55.67
2023-03-24T03:02:03.416Z,55.78
2023-03-24T03:04:46.257Z,56.04
2023-03-24T03:07:16.847Z,55.86
2023-03-24T03:09:52.782Z,55.63
2023-03-24T03:12:26.376Z,56.08
2023-03-24T03:15:01.079Z,56.18
2023-03-24T03:17:39.667Z,56.09
2023-03-24T03:20:14.071Z,56.07
2023-03-24T03:22:49.542Z,56.10
2023-03-24T03:25:23.825Z,56.57
2023-03-24T03:27:56.690Z,56.28
2023-03-24T03:30:31.071Z,55.82
2023-03-24T03:33:07.644Z,55.88
2023-03-24T03:35:42.879Z,56.16
2023-03-24T03:38:19.409Z,56.17
2023-03-24T03:40:54.269Z,55.88
2023-03-24T03:43:26.601Z,55.87
2023-03-24T03:45:55.185Z,55.87
2023-03-24T03:48:29.709Z,55.85
2023-03-24T03:51:12.463Z,55.83
2023-03-24T03:53:50.957Z,55.71
2023-03-24T03:56:23.390Z,55.90
2023-03-24T03:59:08.520Z,55.61
2023-03-24T04:01:41.871Z,55.77
2023-03-24T04:04:59.585Z,55.44
2023-03-24T04:08:03.650Z,54.69
2023-03-24T04:11:41.059Z,55.28
2023-03-24T04:14:34.653Z,55.35
2023-03-24T04:17:55.055Z,55.30
2023-03-24T04:20:55.998Z,55.35
2023-03-24T04:23:32.184Z,54.93
2023-03-24T04:26:14.758Z,55.03
2023-03-24T04:28:58.094Z,55.18
2023-03-24T04:31:34.093Z,54.92
2023-03-24T04:34:09.416Z,54.71
2023-03-24T04:36:43.242Z,55.65
2023-03-24T04:39:39.175Z,54.92
2023-03-24T04:42:17.909Z,55.15
2023-03-24T04:44:51.311Z,55.03
2023-03-24T04:47:44.029Z,54.86
2023-03-24T04:50:40.382Z,55.41
2023-03-24T04:53:14.747Z,55.58
2023-03-24T04:55:59.313Z,55.32
2023-03-24T05:01:49.477Z,56.77
2023-03-24T05:04:37.318Z,57.19
2023-03-24T05:07:17.278Z,57.39
2023-03-24T05:10:10.982Z,58.45
2023-03-24T05:12:49.433Z,59.06
2023-03-24T05:15:37.341Z,60.37
2023-03-24T05:18:21.552Z,60.79
2023-03-24T05:20:51.526Z,61.40
2023-03-24T05:23:22.018Z,62.55
2023-03-24T05:25:51.356Z,63.07
2023-03-24T05:28:22.696Z,63.39
2023-03-24T05:30:51.054Z,63.95
2023-03-24T05:33:37.900Z,64.44
2023-03-24T05:36:09.290Z,64.50
2023-03-24T05:38:38.055Z,64.30
2023-03-24T05:41:07.223Z,64.40
2023-03-24T05:43:41.867Z,64.63
2023-03-24T05:46:12.812Z,64.24
2023-03-24T05:48:41.926Z,64.54
2023-03-24T05:51:15.003Z,64.92
2023-03-24T05:53:43.502Z,65.12
2023-03-24T05:56:19.838Z,64.96
2023-03-24T05:59:02.946Z,64.79
2023-03-24T06:01:58.540Z,65.33
2023-03-24T06:04:36.828Z,65.14
2023-03-24T06:07:14.315Z,65.56
2023-03-24T06:09:47.583Z,65.84
2023-03-24T06:12:16.892Z,66.10
2023-03-24T06:14:57.876Z,66.19
2023-03-24T06:17:28.843Z,66.42
2023-03-24T06:20:04.342Z,66.54
2023-03-24T06:23:02.569Z,66.76
2023-03-24T06:25:37.984Z,67.28
2023-03-24T06:28:16.644Z,66.77
2023-03-24T06:30:48.857Z,67.10
2023-03-24T06:33:25.837Z,67.71
2023-03-24T06:35:55.517Z,67.51
2023-03-24T06:38:25.073Z,67.59
2023-03-24T06:40:53.297Z,67.39
2023-03-24T06:43:21.474Z,67.74
2023-03-24T06:45:50.881Z,67.60
2023-03-24T06:48:22.840Z,67.59
2023-03-24T06:50:53.529Z,67.78
2023-03-24T06:53:22.431Z,68.14
2023-03-24T06:55:52.497Z,67.82
2023-03-24T06:58:22.931Z,68.17
2023-03-24T07:01:20.284Z,68.71
2023-03-24T07:04:01.213Z,66.44
2023-03-24T07:06:50.587Z,62.53
2023-03-24T07:09:25.998Z,60.38
2023-03-24T07:11:55.392Z,59.73
2023-03-24T07:14:26.090Z,59.81
2023-03-24T07:16:55.100Z,59.17
2023-03-24T07:19:36.284Z,59.68
2023-03-24T07:22:42.672Z,59.42
2023-03-24T07:25:37.533Z,58.29
2023-03-24T07:28:25.582Z,58.54
2023-03-24T07:30:55.388Z,59.55
2023-03-24T07:33:25.136Z,61.26
2023-03-24T07:35:57.132Z,62.45
2023-03-24T07:38:25.678Z,63.61
2023-03-24T07:40:59.376Z,65.04
2023-03-24T07:43:29.585Z,65.77
2023-03-24T07:46:18.682Z,66.52
2023-03-24T07:48:49.035Z,67.04
2023-03-24T07:51:20.482Z,67.75
2023-03-24T07:53:54.983Z,68.50
2023-03-24T07:56:31.013Z,68.92
2023-03-24T07:59:02.958Z,69.15
2023-03-24T08:01:55.382Z,69.16
2023-03-24T08:04:39.856Z,70.20
2023-03-24T08:07:28.312Z,70.34
2023-03-24T08:09:56.577Z,70.45
2023-03-24T08:12:24.751Z,70.48
2023-03-24T08:14:55.295Z,70.79
2023-03-24T08:17:23.448Z,71.31
2023-03-24T08:19:59.715Z,71.26
2023-03-24T08:22:28.565Z,71.30
2023-03-24T08:24:56.574Z,71.15
2023-03-24T08:27:24.672Z,71.08
2023-03-24T08:29:54.043Z,71.04
2023-03-24T08:32:22.131Z,70.93
2023-03-24T08:34:50.280Z,71.02
2023-03-24T08:37:18.365Z,71.39
2023-03-24T08:39:46.800Z,71.46
2023-03-24T08:42:14.987Z,71.91
2023-03-24T08:44:43.217Z,71.75
2023-03-24T08:47:12.985Z,71.81
2023-03-24T08:49:41.066Z,71.69
2023-03-24T08:52:09.275Z,71.54
2023-03-24T08:54:37.807Z,72.41
2023-03-24T08:57:06.400Z,72.39
2023-03-24T08:59:34.557Z,72.05
2023-03-24T09:02:03.281Z,71.88
2023-03-24T09:04:32.818Z,71.87
2023-03-24T09:07:02.947Z,71.88
2023-03-24T09:09:31.993Z,71.56
2023-03-24T09:12:00.120Z,71.72
2023-03-24T09:14:28.306Z,71.14
2023-03-24T09:16:56.566Z,71.50
2023-03-24T09:19:24.637Z,71.17
2023-03-24T09:21:54.108Z,70.91
2023-03-24T09:24:22.133Z,70.63
2023-03-24T09:26:50.170Z,71.14
2023-03-24T09:29:18.617Z,70.83
2023-03-24T09:31:46.712Z,71.03
2023-03-24T09:34:14.815Z,70.64
2023-03-24T09:36:42.848Z,69.70
2023-03-24T09:39:12.225Z,69.48
2023-03-24T09:41:41.378Z,69.57
2023-03-24T09:44:24.126Z,69.42
2023-03-24T09:46:58.185Z,69.51
2023-03-24T09:49:31.476Z,69.30
2023-03-24T09:52:06.405Z,69.88
2023-03-24T09:54:45.500Z,69.55
2023-03-24T09:57:23.280Z,69.17
2023-03-24T09:59:51.474Z,69.14
2023-03-24T10:02:23.517Z,68.38
2023-03-24T10:04:51.822Z,68.60
2023-03-24T10:07:27.887Z,67.64
2023-03-24T10:10:01.224Z,67.26
2023-03-24T10:12:37.558Z,67.08
2023-03-24T10:15:49.596Z,67.53
2023-03-24T10:18:30.914Z,65.57
2023-03-24T10:21:07.622Z,66.24
2023-03-24T10:23:41.800Z,66.77
2023-03-24T10:26:27.893Z,66.20
2023-03-24T10:29:14.717Z,64.29
2023-03-24T10:31:46.784Z,65.39
2023-03-24T10:34:15.072Z,65.76
2023-03-24T10:36:43.485Z,65.49
2023-03-24T10:39:20.865Z,64.79
2023-03-24T10:41:54.579Z,65.34
2023-03-24T10:44:24.265Z,65.01
2023-03-24T10:46:57.403Z,63.97
2023-03-24T10:49:26.778Z,64.31
2023-03-24T10:52:03.611Z,63.58
2023-03-24T10:54:33.049Z,64.72
2023-03-24T10:57:16.218Z,64.14
2023-03-24T10:59:55.226Z,64.44
2023-03-24T11:02:26.739Z,65.08
2023-03-24T11:04:59.166Z,64.45
2023-03-24T11:07:34.866Z,63.72
2023-03-24T11:10:08.543Z,63.46
2023-03-24T11:12:40.405Z,63.10
2023-03-24T11:15:22.972Z,63.25
2023-03-24T11:17:58.627Z,63.21
2023-03-24T11:20:32.979Z,63.15
2023-03-24T11:23:05.531Z,63.68
2023-03-24T11:25:36.827Z,62.45
2023-03-24T11:28:10.332Z,62.40
2023-03-24T11:30:48.454Z,62.16
2023-03-24T11:33:35.219Z,62.14
2023-03-24T11:36:30.439Z,62.35
2023-03-24T11:39:02.079Z,62.47
2023-03-24T11:41:30.721Z,62.12
2023-03-24T11:44:18.060Z,61.60
2023-03-24T11:46:50.481Z,61.70
2023-03-24T11:49:23.596Z,61.91
2023-03-24T11:51:55.863Z,61.28
2023-03-24T11:54:31.095Z,61.41
2023-03-24T11:57:05.695Z,61.84
2023-03-24T11:59:43.232Z,61.15
2023-03-24T12:02:26.476Z,61.75
2023-03-24T12:05:13.012Z,61.63
2023-03-24T12:08:02.129Z,61.54
2023-03-24T12:10:45.394Z,62.26
2023-03-24T12:13:31.853Z,61.53
2023-03-24T12:16:29.569Z,61.65
2023-03-24T12:19:28.294Z,61.19
2023-03-24T12:22:08.969Z,60.74
2023-03-24T12:25:09.129Z,60.16
2023-03-24T12:27:50.027Z,60.94
2023-03-24T12:30:26.471Z,60.04
2023-03-24T12:33:29.110Z,60.04
2023-03-24T12:36:31.798Z,59.70
2023-03-24T12:39:21.174Z,59.44
2023-03-24T12:42:08.153Z,58.85
2023-03-24T12:45:16.066Z,58.76
2023-03-24T12:48:04.859Z,58.93
2023-03-24T12:50:49.379Z,59.53
2023-03-24T12:56:16.442Z,58.99
2023-03-24T12:58:50.828Z,59.67
2023-03-24T13:01:29.447Z,59.45
2023-03-24T13:04:07.869Z,59.24
2023-03-24T13:06:44.633Z,60.12
2023-03-24T13:09:25.015Z,59.28
2023-03-24T13:11:59.824Z,58.74
2023-03-24T13:14:33.086Z,58.47
2023-03-24T13:17:15.420Z,59.34
2023-03-24T13:19:44.260Z,59.17
2023-03-24T13:22:19.494Z,58.57
2023-03-24T13:24:49.404Z,59.40
2023-03-24T13:27:23.975Z,59.89
2023-03-24T13:30:14.396Z,59.72
2023-03-24T13:32:48.463Z,60.15
2023-03-24T13:35:32.790Z,59.76
2023-03-24T13:38:33.898Z,60.07
2023-03-24T13:41:11.210Z,60.02
2023-03-24T13:43:49.688Z,59.59
2023-03-24T13:46:18.080Z,59.59
2023-03-24T13:48:51.150Z,59.89
2023-03-24T13:51:23.118Z,60.87
2023-03-24T13:53:59.632Z,60.75
2023-03-24T13:56:35.506Z,60.99
2023-03-24T13:59:24.737Z,61.17
2023-03-24T14:02:42.651Z,61.44
2023-03-24T14:05:13.076Z,61.81
2023-03-24T14:07:48.021Z,62.36
2023-03-24T14:10:42.562Z,62.72
2023-03-24T14:13:33.984Z,63.36
2023-03-24T14:16:37.335Z,64.20
2023-03-24T14:19:24.601Z,64.92
2023-03-24T14:21:58.988Z,64.89
2023-03-24T14:24:30.651Z,66.34
2023-03-24T14:27:00.479Z,66.96
2023-03-24T14:29:48.183Z,67.58
2023-03-24T14:32:21.423Z,67.85
2023-03-24T14:34:57.936Z,68.04
2023-03-24T14:37:28.350Z,68.29
2023-03-24T14:39:58.908Z,68.75
2023-03-24T14:42:45.490Z,68.95
2023-03-24T14:45:43.670Z,68.77
2023-03-24T14:48:42.389Z,69.35
2023-03-24T14:51:36.534Z,69.78
2023-03-24T14:54:08.726Z,70.21
2023-03-24T14:56:41.984Z,69.82
2023-03-24T14:59:26.259Z,69.97
2023-03-24T15:02:05.175Z,69.92
2023-03-24T15:04:39.255Z,70.73
2023-03-24T15:07:07.831Z,71.12
2023-03-24T15:09:38.833Z,71.16
2023-03-24T15:12:07.159Z,70.58
2023-03-24T15:14:38.309Z,70.67
2023-03-24T15:17:19.731Z,71.19
2023-03-24T15:19:52.470Z,71.57
2023-03-24T15:22:21.331Z,71.51
2023-03-24T15:24:51.891Z,71.56
2023-03-24T15:27:27.516Z,71.31
2023-03-24T15:30:00.141Z,71.96
2023-03-24T15:32:32.593Z,71.75
2023-03-24T15:35:06.033Z,71.73
2023-03-24T15:37:40.690Z,71.63
2023-03-24T15:40:40.573Z,72.04
2023-03-24T15:43:21.126Z,71.86
2023-03-24T15:46:04.757Z,72.05
2023-03-24T15:48:39.593Z,72.05
2023-03-24T15:51:11.538Z,72.36
2023-03-24T15:53:44.655Z,71.58
2023-03-24T15:56:21.934Z,71.43
2023-03-24T15:58:53.832Z,71.53
2023-03-24T16:01:31.172Z,71.36
2023-03-24T16:04:02.307Z,71.05
2023-03-24T16:06:35.150Z,71.68
2023-03-24T16:09:08.552Z,71.17
2023-03-24T16:11:38.144Z,70.70
2023-03-24T16:14:22.238Z,69.45
2023-03-24T16:16:55.343Z,69.54
2023-03-24T16:19:24.253Z,69.06
2023-03-24T16:21:52.420Z,68.91
2023-03-24T16:24:20.757Z,68.21
2023-03-24T16:26:50.222Z,68.80
2023-03-24T16:29:21.652Z,68.30
2023-03-24T16:31:51.754Z,68.17
2023-03-24T16:34:21.873Z,68.25
2023-03-24T16:36:51.892Z,67.29
2023-03-24T16:39:22.792Z,68.28
2023-03-24T16:41:52.284Z,68.59
2023-03-24T16:44:21.842Z,68.64
2023-03-24T16:46:53.533Z,68.54
2023-03-24T16:49:23.654Z,68.71
2023-03-24T16:51:52.844Z,68.43
2023-03-24T16:54:21.411Z,68.10
2023-03-24T16:56:51.016Z,67.03
2023-03-24T16:59:19.722Z,66.66
2023-03-24T17:01:48.223Z,66.75
2023-03-24T17:04:19.589Z,66.82
2023-03-24T17:06:52.665Z,66.76
2023-03-24T17:09:21.597Z,66.87
2023-03-24T17:11:54.137Z,66.24
2023-03-24T17:14:22.520Z,66.84
2023-03-24T17:16:52.924Z,66.83
2023-03-24T17:19:24.884Z,67.49
2023-03-24T17:22:00.617Z,67.27
2023-03-24T17:24:29.447Z,67.69
2023-03-24T17:26:58.972Z,67.37
2023-03-24T17:29:27.044Z,67.34
2023-03-24T17:31:55.742Z,67.61
2023-03-24T17:34:23.790Z,67.23
2023-03-24T17:36:52.234Z,66.87
2023-03-24T17:39:21.722Z,66.78
2023-03-24T17:41:49.994Z,66.51
2023-03-24T17:44:19.485Z,66.57
2023-03-24T17:46:47.838Z,66.43
2023-03-24T17:49:15.894Z,66.60
2023-03-24T17:51:43.917Z,66.87
2023-03-24T17:54:13.226Z,66.55
2023-03-24T17:56:41.661Z,66.59
2023-03-24T17:59:10.042Z,66.78
2023-03-24T18:01:40.411Z,66.61
2023-03-24T18:04:09.039Z,66.37
2023-03-24T18:06:41.837Z,66.32
2023-03-24T18:09:10.580Z,66.31
2023-03-24T18:11:39.084Z,65.95
2023-03-24T18:14:09.159Z,66.33
2023-03-24T18:16:40.062Z,66.35
2023-03-24T18:19:08.262Z,66.01
2023-03-24T18:21:37.595Z,66.07
2023-03-24T18:24:06.693Z,66.22
2023-03-24T18:26:36.043Z,66.01
2023-03-24T18:29:05.619Z,65.88
2023-03-24T18:31:34.147Z,65.72
2023-03-24T18:34:04.404Z,65.59
2023-03-24T18:36:32.562Z,65.48
2023-03-24T18:39:04.963Z,65.48
2023-03-24T18:41:36.946Z,65.91
2023-03-24T18:44:08.319Z,65.51
2023-03-24T18:46:38.139Z,65.71
2023-03-24T18:49:08.116Z,65.79
2023-03-24T18:51:36.418Z,65.47
2023-03-24T18:54:05.145Z,65.34
2023-03-24T18:56:33.783Z,64.93
2023-03-24T18:59:01.961Z,65.11
2023-03-24T19:01:30.299Z,65.25
2023-03-24T19:03:58.826Z,65.34
2023-03-24T19:06:30.882Z,65.41
2023-03-24T19:09:00.372Z,65.42
2023-03-24T19:11:28.484Z,65.24
2023-03-24T19:13:57.393Z,64.83
2023-03-24T19:16:25.980Z,65.12
2023-03-24T19:18:54.190Z,65.13
2023-03-24T19:21:22.993Z,65.07
2023-03-24T19:23:53.003Z,65.17
2023-03-24T19:26:21.689Z,65.16
2023-03-24T19:28:50.401Z,64.96
2023-03-24T19:31:20.832Z,64.77
2023-03-24T19:33:51.515Z,64.92
2023-03-24T19:36:19.875Z,65.18
2023-03-24T19:38:47.995Z,64.95
2023-03-24T19:41:18.466Z,64.98
2023-03-24T19:43:46.616Z,64.41
2023-03-24T19:46:16.407Z,64.58
2023-03-24T19:48:44.796Z,64.46
2023-03-24T19:51:13.135Z,64.29
2023-03-24T19:53:41.482Z,64.23
2023-03-24T19:56:11.240Z,65.00
2023-03-24T19:58:40.647Z,64.07
2023-03-24T20:01:08.733Z,64.01
2023-03-24T20:03:37.599Z,64.01
2023-03-24T20:06:12.481Z,64.32
2023-03-24T20:08:41.419Z,63.99
2023-03-24T20:11:11.517Z,64.05
2023-03-24T20:13:41.465Z,63.85
2023-03-24T20:16:09.530Z,64.37
2023-03-24T20:18:38.985Z,64.51
2023-03-24T20:21:08.404Z,64.29
2023-03-24T20:23:36.462Z,63.94
2023-03-24T20:26:04.610Z,64.16
2023-03-24T20:28:32.979Z,63.74
2023-03-24T20:31:04.078Z,63.38
2023-03-24T20:33:32.512Z,63.51
2023-03-24T20:36:01.266Z,64.55
2023-03-24T20:38:29.518Z,63.75
2023-03-24T20:41:01.835Z,64.00
2023-03-24T20:43:30.936Z,63.72
2023-03-24T20:45:59.418Z,64.30
2023-03-24T20:48:29.055Z,64.37
2023-03-24T20:50:57.365Z,63.76
2023-03-24T20:53:27.356Z,64.01
2023-03-24T20:55:59.621Z,63.21
2023-03-24T20:58:28.612Z,63.40
2023-03-24T21:00:56.758Z,63.48
2023-03-24T21:03:25.295Z,63.20
2023-03-24T21:05:54.798Z,63.97
2023-03-24T21:08:22.830Z,63.55
2023-03-24T21:10:50.926Z,63.81
2023-03-24T21:13:21.695Z,63.56
2023-03-24T21:15:50.412Z,63.59
2023-03-24T21:18:19.217Z,63.40
2023-03-24T21:20:54.990Z,63.16
2023-03-24T21:23:25.449Z,63.37
2023-03-24T21:25:53.859Z,63.43
2023-03-24T21:28:21.872Z,63.14
2023-03-24T21:30:50.995Z,63.17
2023-03-24T21:33:19.153Z,63.54
2023-03-24T21:35:47.555Z,63.57
2023-03-24T21:38:16.182Z,63.18
2023-03-24T21:40:46.611Z,63.13
2023-03-24T21:43:14.713Z,63.19
2023-03-24T21:45:46.391Z,63.30
2023-03-24T21:48:16.254Z,62.99
2023-03-24T21:50:45.745Z,63.10
2023-03-24T21:53:15.720Z,63.18
2023-03-24T21:55:52.619Z,63.04
2023-03-24T21:58:20.981Z,63.93
2023-03-24T22:00:52.120Z,64.17
2023-03-24T22:03:21.783Z,64.22
2023-03-24T22:05:50.104Z,63.65
2023-03-24T22:08:23.287Z,63.49
2023-03-24T22:10:58.027Z,63.84
2023-03-24T22:13:27.178Z,63.24
2023-03-24T22:15:56.173Z,62.80
2023-03-24T22:18:24.442Z,63.63
2023-03-24T22:20:56.807Z,63.33
2023-03-24T22:23:24.933Z,64.02
2023-03-24T22:25:54.284Z,63.63
2023-03-24T22:28:22.304Z,63.17
2023-03-24T22:30:50.404Z,63.77
2023-03-24T22:33:18.730Z,63.83
2023-03-24T22:35:46.792Z,64.32
2023-03-24T22:38:15.913Z,64.49
2023-03-24T22:40:44.040Z,65.45
2023-03-24T22:43:14.272Z,66.91
2023-03-24T22:45:47.139Z,67.56
2023-03-24T22:48:15.330Z,68.03
2023-03-24T22:50:43.697Z,68.38
2023-03-24T22:53:11.912Z,69.60
2023-03-24T22:55:41.980Z,69.29
2023-03-24T22:58:10.757Z,69.39
2023-03-24T23:00:42.798Z,69.18
2023-03-24T23:03:36.509Z,70.77
2023-03-24T23:06:05.237Z,70.58
2023-03-24T23:08:37.430Z,70.57
2023-03-24T23:11:08.465Z,69.47
2023-03-24T23:13:36.513Z,68.22
2023-03-24T23:16:10.634Z,68.83
2023-03-24T23:18:39.273Z,68.99
2023-03-24T23:21:10.013Z,68.88
2023-03-24T23:23:39.918Z,69.56
2023-03-24T23:26:26.231Z,69.50
2023-03-24T23:28:57.377Z,68.79
2023-03-24T23:31:28.632Z,69.33
2023-03-24T23:33:58.589Z,69.98
2023-03-24T23:36:28.242Z,70.33
2023-03-24T23:38:58.050Z,69.76
2023-03-24T23:41:26.166Z,69.58
2023-03-24T23:43:55.178Z,70.28
2023-03-24T23:46:24.826Z,69.62
2023-03-24T23:48:54.657Z,69.99
2023-03-24T23:51:22.703Z,70.81
2023-03-24T23:53:51.797Z,70.08
2023-03-24T23:56:21.551Z,70.06
2023-03-24T23:58:49.750Z,70.24
